Terminal Aerodrome Forecast
Issued by NWS Grand Junction, CO

Home | Current Version | Previous Version | Text Only | Print | Product List | Glossary On
Versions: 1 2 3 4 5 6 7 8 9 10 11 12 13 14 15 16 17 18 19 20
000
FTUS45 KGJT 231726
TAFGJT
TAF
KGJT 231726Z 2318/2418 28015G22KT P6SM SCT110 BKN150
     FM240200 35010KT P6SM SCT110
     FM240500 09005KT P6SM SKC
     FM241200 11006KT P6SM FEW250=

USA.gov is the U.S. government's official web portal to all federal, state and local government web resources and services.